createdAt,value
2018-06-13T00:01:41.458Z,7.27
2018-06-13T00:04:14.248Z,6.23
2018-06-13T00:06:43.538Z,7.07
2018-06-13T00:09:12.842Z,6.70
2018-06-13T00:11:42.216Z,6.33
2018-06-13T00:14:18.327Z,6.13
2018-06-13T00:16:47.757Z,6.37
2018-06-13T00:19:17.102Z,6.80
2018-06-13T00:21:46.407Z,5.90
2018-06-13T00:24:15.791Z,5.97
2018-06-13T00:26:44.919Z,5.90
2018-06-13T00:29:14.285Z,5.60
2018-06-13T00:31:43.623Z,5.87
2018-06-13T00:34:12.948Z,5.83
2018-06-13T00:36:42.285Z,5.37
2018-06-13T00:39:11.603Z,6.37
2018-06-13T00:41:40.967Z,5.73
2018-06-13T00:44:10.327Z,5.40
2018-06-13T00:46:39.597Z,5.53
2018-06-13T00:49:08.937Z,5.73
2018-06-13T00:51:38.282Z,5.67
2018-06-13T00:54:07.584Z,5.20
2018-06-13T00:56:37.010Z,5.57
2018-06-13T00:59:06.421Z,5.00
2018-06-13T01:01:35.700Z,5.03
2018-06-13T01:04:04.974Z,4.77
2018-06-13T01:06:34.439Z,4.40
2018-06-13T01:09:05.012Z,4.20
2018-06-13T01:11:34.612Z,4.70
2018-06-13T01:14:04.262Z,4.17
2018-06-13T01:16:33.556Z,4.03
2018-06-13T01:19:02.960Z,4.17
2018-06-13T01:21:32.310Z,4.07
2018-06-13T01:24:01.729Z,3.73
2018-06-13T01:26:31.202Z,3.70
2018-06-13T01:29:00.534Z,3.90
2018-06-13T01:31:30.044Z,3.53
2018-06-13T01:33:59.705Z,3.57
2018-06-13T01:36:29.773Z,3.50
2018-06-13T01:38:59.232Z,3.43
2018-06-13T01:41:28.575Z,3.73
2018-06-13T01:43:58.130Z,3.30
2018-06-13T01:46:27.782Z,3.30
2018-06-13T01:48:57.104Z,4.20
2018-06-13T01:51:26.412Z,3.50
2018-06-13T01:53:55.929Z,3.30
2018-06-13T01:56:25.242Z,3.70
2018-06-13T01:58:54.548Z,3.83
2018-06-13T02:01:24.058Z,3.27
2018-06-13T02:03:53.317Z,3.47
2018-06-13T02:06:22.767Z,3.40
2018-06-13T02:08:52.081Z,3.30
2018-06-13T02:11:21.327Z,3.13
2018-06-13T02:13:50.640Z,3.87
2018-06-13T02:16:19.936Z,3.93
2018-06-13T02:18:49.060Z,3.23
2018-06-13T02:21:18.389Z,3.73
2018-06-13T02:23:47.771Z,3.27
2018-06-13T02:26:17.037Z,3.20
2018-06-13T02:28:46.435Z,3.20
2018-06-13T02:31:15.860Z,3.40
2018-06-13T02:33:45.225Z,3.60
2018-06-13T02:36:14.574Z,3.50
2018-06-13T02:38:44.017Z,4.10
2018-06-13T02:41:13.273Z,3.60
2018-06-13T02:43:42.591Z,3.87
2018-06-13T02:46:11.938Z,3.93
2018-06-13T02:48:41.219Z,3.67
2018-06-13T02:51:10.565Z,3.40
2018-06-13T02:53:39.882Z,3.27
2018-06-13T02:56:09.170Z,3.80
2018-06-13T02:58:38.491Z,3.50
2018-06-13T03:01:07.839Z,3.90
2018-06-13T03:03:37.222Z,4.30
2018-06-13T03:06:06.553Z,3.27
2018-06-13T03:08:35.857Z,4.40
2018-06-13T03:11:05.185Z,3.60
2018-06-13T03:13:34.545Z,3.83
2018-06-13T03:16:03.914Z,4.07
2018-06-13T03:18:33.479Z,4.40
2018-06-13T03:21:02.922Z,4.53
2018-06-13T03:23:32.296Z,3.80
2018-06-13T03:26:01.834Z,4.77
2018-06-13T03:28:31.278Z,4.33
2018-06-13T03:31:00.420Z,4.30
2018-06-13T03:33:29.923Z,4.27
2018-06-13T03:35:59.459Z,4.47
2018-06-13T03:38:28.944Z,4.13
2018-06-13T03:40:58.512Z,4.23
2018-06-13T03:43:28.025Z,3.90
2018-06-13T03:45:57.536Z,4.10
2018-06-13T03:48:26.913Z,3.90
2018-06-13T03:50:56.226Z,3.90
2018-06-13T03:53:25.557Z,4.13
2018-06-13T03:55:54.885Z,3.90
2018-06-13T03:58:24.165Z,3.47
2018-06-13T04:00:53.506Z,3.97
2018-06-13T04:03:22.934Z,3.90
2018-06-13T04:05:52.238Z,3.57
2018-06-13T04:08:21.507Z,4.03
2018-06-13T04:10:50.861Z,4.70
2018-06-13T04:13:20.190Z,4.00
2018-06-13T04:15:49.636Z,4.60
2018-06-13T04:18:19.130Z,4.13
2018-06-13T04:20:48.547Z,4.70
2018-06-13T04:23:17.862Z,4.67
2018-06-13T04:25:47.157Z,4.50
2018-06-13T04:28:16.453Z,4.60
2018-06-13T04:30:45.782Z,4.03
2018-06-13T04:33:15.154Z,4.90
2018-06-13T04:35:44.635Z,4.70
2018-06-13T04:38:13.878Z,5.33
2018-06-13T04:40:43.231Z,4.70
2018-06-13T04:43:12.507Z,4.37
2018-06-13T04:45:41.895Z,4.50
2018-06-13T04:48:11.197Z,5.93
2018-06-13T04:50:40.507Z,4.83
2018-06-13T04:53:10.148Z,6.40
2018-06-13T04:55:39.432Z,4.67
2018-06-13T04:58:08.770Z,4.23
2018-06-13T05:00:38.050Z,3.80
2018-06-13T05:03:07.476Z,4.23
2018-06-13T05:05:36.808Z,3.87
2018-06-13T05:08:06.236Z,3.90
2018-06-13T05:10:35.636Z,3.77
2018-06-13T05:13:05.028Z,4.20
2018-06-13T05:15:34.513Z,6.93
2018-06-13T05:18:04.009Z,3.90
2018-06-13T05:20:33.517Z,4.77
2018-06-13T05:23:02.883Z,4.00
2018-06-13T05:25:32.207Z,3.90
2018-06-13T05:28:01.691Z,4.10
2018-06-13T05:30:31.183Z,4.40
2018-06-13T05:33:00.898Z,4.13
2018-06-13T05:35:30.389Z,4.43
2018-06-13T05:38:00.159Z,4.80
2018-06-13T05:40:29.757Z,4.00
2018-06-13T05:42:59.229Z,3.77
2018-06-13T05:45:28.838Z,4.20
2018-06-13T05:47:58.259Z,4.00
2018-06-13T05:50:27.744Z,4.00
2018-06-13T05:52:56.970Z,3.97
2018-06-13T05:55:26.253Z,3.90
2018-06-13T05:57:55.454Z,3.63
2018-06-13T06:00:24.788Z,4.37
2018-06-13T06:02:54.298Z,4.03
2018-06-13T06:05:23.849Z,4.07
2018-06-13T06:07:53.245Z,4.20
2018-06-13T06:10:22.370Z,3.57
2018-06-13T06:12:51.613Z,3.20
2018-06-13T06:15:20.874Z,3.50
2018-06-13T06:17:50.166Z,4.37
2018-06-13T06:20:19.524Z,4.13
2018-06-13T06:22:48.851Z,5.47
2018-06-13T06:25:18.234Z,5.10
2018-06-13T06:27:47.605Z,4.47
2018-06-13T06:30:17.017Z,4.10
2018-06-13T06:32:46.308Z,4.23
2018-06-13T06:35:15.590Z,4.47
2018-06-13T06:37:45.032Z,4.00
2018-06-13T06:40:14.532Z,5.10
2018-06-13T06:42:43.910Z,5.10
2018-06-13T06:45:13.176Z,4.13
2018-06-13T06:47:42.513Z,4.20
2018-06-13T06:50:11.819Z,3.30
2018-06-13T06:52:41.091Z,3.40
2018-06-13T06:55:10.237Z,3.93
2018-06-13T06:57:39.618Z,4.10
2018-06-13T07:00:09.990Z,3.53
2018-06-13T07:02:39.458Z,3.43
2018-06-13T07:05:08.715Z,3.70
2018-06-13T07:07:38.019Z,3.70
2018-06-13T07:10:08.429Z,3.43
2018-06-13T07:12:37.782Z,3.37
2018-06-13T07:15:09.436Z,3.53
2018-06-13T07:17:41.292Z,3.40
2018-06-13T07:20:12.668Z,3.17
2018-06-13T07:22:45.164Z,2.77
2018-06-13T07:25:15.498Z,3.30
2018-06-13T07:27:45.142Z,2.83
2018-06-13T07:30:15.124Z,2.77
2018-06-13T07:32:45.851Z,2.93
2018-06-13T07:35:16.527Z,3.20
2018-06-13T07:37:46.715Z,2.93
2018-06-13T07:40:16.937Z,3.40
2018-06-13T07:42:47.032Z,2.60
2018-06-13T07:45:16.347Z,3.70
2018-06-13T07:47:45.700Z,2.60
2018-06-13T07:50:15.333Z,3.00
2018-06-13T07:52:44.673Z,2.57
2018-06-13T07:55:13.982Z,2.47
2018-06-13T07:57:43.113Z,3.73
2018-06-13T08:00:12.532Z,2.60
2018-06-13T08:02:41.857Z,2.40
2018-06-13T08:05:11.229Z,2.60
2018-06-13T08:07:40.725Z,2.60
2018-06-13T08:10:09.759Z,2.70
2018-06-13T08:12:39.053Z,2.20
2018-06-13T08:15:08.381Z,2.27
2018-06-13T08:17:37.677Z,2.77
2018-06-13T08:20:06.990Z,3.30
2018-06-13T08:22:36.307Z,3.43
2018-06-13T08:25:05.726Z,3.33
2018-06-13T08:27:36.406Z,2.63
2018-06-13T08:30:05.828Z,2.80
2018-06-13T08:32:35.326Z,3.10
2018-06-13T08:35:04.815Z,3.20
2018-06-13T08:37:34.243Z,2.87
2018-06-13T08:40:03.673Z,2.80
2018-06-13T08:42:32.937Z,2.67
2018-06-13T08:45:02.257Z,2.90
2018-06-13T08:47:31.573Z,2.70
2018-06-13T08:50:00.924Z,2.97
2018-06-13T08:52:30.246Z,2.50
2018-06-13T08:54:59.647Z,2.50
2018-06-13T08:57:29.004Z,2.63
2018-06-13T08:59:58.473Z,3.30
2018-06-13T09:02:27.772Z,3.23
2018-06-13T09:04:57.175Z,2.80
2018-06-13T09:07:26.516Z,2.97
2018-06-13T09:09:55.844Z,2.47
2018-06-13T09:12:25.153Z,2.73
2018-06-13T09:14:54.510Z,2.50
2018-06-13T09:17:23.916Z,2.63
2018-06-13T09:19:53.337Z,2.77
2018-06-13T09:22:22.826Z,2.67
2018-06-13T09:24:52.082Z,2.23
2018-06-13T09:27:21.706Z,3.20
2018-06-13T09:29:51.058Z,2.67
2018-06-13T09:32:20.307Z,2.60
2018-06-13T09:34:49.712Z,2.63
2018-06-13T09:37:19.040Z,2.40
2018-06-13T09:39:48.272Z,2.10
2018-06-13T09:42:17.559Z,2.23
2018-06-13T09:44:46.919Z,2.40
2018-06-13T09:47:23.456Z,2.60
2018-06-13T09:49:45.529Z,2.20
2018-06-13T09:52:14.969Z,2.00
2018-06-13T09:54:44.318Z,1.90
2018-06-13T09:57:13.587Z,2.30
2018-06-13T09:59:48.106Z,2.90
2018-06-13T10:02:17.590Z,1.90
2018-06-13T10:04:48.931Z,2.27
2018-06-13T10:07:18.249Z,2.43
2018-06-13T10:09:47.645Z,1.63
2018-06-13T10:12:16.949Z,2.10
2018-06-13T10:14:46.311Z,1.70
2018-06-13T10:17:15.622Z,2.17
2018-06-13T10:19:44.938Z,2.70
2018-06-13T10:22:14.295Z,2.87
2018-06-13T10:24:43.591Z,2.20
2018-06-13T10:27:18.203Z,2.30
2018-06-13T10:29:47.524Z,2.07
2018-06-13T10:32:16.935Z,2.10
2018-06-13T10:34:46.251Z,2.00
2018-06-13T10:37:15.632Z,1.80
2018-06-13T10:39:44.945Z,2.80
2018-06-13T10:42:14.257Z,2.43
2018-06-13T10:44:44.833Z,2.63
2018-06-13T10:47:14.181Z,2.23
2018-06-13T10:49:43.475Z,2.47
2018-06-13T10:52:12.884Z,2.37
2018-06-13T10:54:42.169Z,2.37
2018-06-13T10:57:11.534Z,2.30
2018-06-13T10:59:40.826Z,2.30
2018-06-13T11:02:10.220Z,2.20
2018-06-13T11:04:39.528Z,2.27
2018-06-13T11:07:08.797Z,2.00
2018-06-13T11:09:38.098Z,1.97
2018-06-13T11:12:07.622Z,2.43
2018-06-13T11:14:36.996Z,1.93
2018-06-13T11:17:06.438Z,2.03
2018-06-13T11:19:35.510Z,2.23
2018-06-13T11:22:04.779Z,2.03
2018-06-13T11:24:34.039Z,1.73
2018-06-13T11:27:03.395Z,2.17
2018-06-13T11:29:32.907Z,2.00
2018-06-13T11:32:02.223Z,1.90
2018-06-13T11:34:31.603Z,2.13
2018-06-13T11:37:01.160Z,2.07
2018-06-13T11:39:30.782Z,1.80
2018-06-13T11:42:00.235Z,2.20
2018-06-13T11:44:29.720Z,1.97
2018-06-13T11:46:59.221Z,2.10
2018-06-13T11:49:28.924Z,2.27
2018-06-13T11:51:58.608Z,1.80
2018-06-13T11:54:28.085Z,1.90
2018-06-13T11:56:57.397Z,1.90
2018-06-13T11:59:26.740Z,2.63
2018-06-13T12:01:56.074Z,2.20
2018-06-13T12:04:25.888Z,1.90
2018-06-13T12:06:55.403Z,1.97
2018-06-13T12:09:24.702Z,1.80
2018-06-13T12:11:53.962Z,2.00
2018-06-13T12:14:23.429Z,2.00
2018-06-13T12:16:52.925Z,1.83
2018-06-13T12:19:22.240Z,1.60
2018-06-13T12:21:51.679Z,1.90
2018-06-13T12:24:21.135Z,2.10
2018-06-13T12:26:50.498Z,1.30
2018-06-13T12:29:19.982Z,1.90
2018-06-13T12:31:49.267Z,2.00
2018-06-13T12:34:18.903Z,2.03
2018-06-13T12:36:48.114Z,1.90
2018-06-13T12:39:17.405Z,1.90
2018-06-13T12:41:46.777Z,2.17
2018-06-13T12:44:16.053Z,2.47
2018-06-13T12:46:45.377Z,2.40
2018-06-13T12:49:17.558Z,2.27
2018-06-13T12:51:46.875Z,2.00
2018-06-13T12:54:16.350Z,2.40
2018-06-13T12:56:45.744Z,2.37
2018-06-13T12:59:15.021Z,2.40
2018-06-13T13:01:44.297Z,2.20
2018-06-13T13:04:13.618Z,2.23
2018-06-13T13:06:42.928Z,1.90
2018-06-13T13:09:13.803Z,2.13
2018-06-13T13:11:43.922Z,1.90
2018-06-13T13:14:13.172Z,1.90
2018-06-13T13:16:42.574Z,2.33
2018-06-13T13:19:11.965Z,1.73
2018-06-13T13:21:41.221Z,2.00
2018-06-13T13:24:10.469Z,2.37
2018-06-13T13:26:39.529Z,1.67
2018-06-13T13:29:08.958Z,2.13
2018-06-13T13:31:38.293Z,2.30
2018-06-13T13:34:07.635Z,1.83
2018-06-13T13:36:36.877Z,1.90
2018-06-13T13:39:09.470Z,1.97
2018-06-13T13:41:39.470Z,1.70
2018-06-13T13:44:08.869Z,3.10
2018-06-13T13:46:38.219Z,2.00
2018-06-13T13:49:07.516Z,2.30
2018-06-13T13:51:36.848Z,2.87
2018-06-13T13:54:06.250Z,2.17
2018-06-13T13:56:35.602Z,2.30
2018-06-13T13:59:04.952Z,2.60
2018-06-13T14:01:34.331Z,2.20
2018-06-13T14:04:03.624Z,2.17
2018-06-13T14:06:32.971Z,2.00
2018-06-13T14:09:02.370Z,2.37
2018-06-13T14:11:31.712Z,2.30
2018-06-13T14:14:00.986Z,2.37
2018-06-13T14:16:30.498Z,2.30
2018-06-13T14:19:00.020Z,2.20
2018-06-13T14:21:29.727Z,2.60
2018-06-13T14:23:59.126Z,3.70
2018-06-13T14:26:28.558Z,2.80
2018-06-13T14:28:58.090Z,2.50
2018-06-13T14:31:27.389Z,2.50
2018-06-13T14:33:56.689Z,1.90
2018-06-13T14:36:25.989Z,2.63
2018-06-13T14:38:55.369Z,2.33
2018-06-13T14:41:24.639Z,1.90
2018-06-13T14:43:54.681Z,2.30
2018-06-13T14:46:24.798Z,2.30
2018-06-13T14:48:54.115Z,2.03
2018-06-13T14:51:23.429Z,1.90
2018-06-13T14:53:55.316Z,2.10
2018-06-13T14:56:28.584Z,2.37
2018-06-13T14:58:59.188Z,2.53
2018-06-13T15:01:28.683Z,3.17
2018-06-13T15:03:58.114Z,1.90
2018-06-13T15:06:27.431Z,2.10
2018-06-13T15:08:56.688Z,2.50
2018-06-13T15:11:26.079Z,2.10
2018-06-13T15:13:55.382Z,2.00
2018-06-13T15:16:24.716Z,2.13
2018-06-13T15:18:54.381Z,2.70
2018-06-13T15:21:24.596Z,2.37
2018-06-13T15:23:55.425Z,1.70
2018-06-13T15:26:28.241Z,1.93
2018-06-13T15:29:07.329Z,1.80
2018-06-13T15:31:38.103Z,2.60
2018-06-13T15:34:08.162Z,2.43
2018-06-13T15:36:37.566Z,2.33
2018-06-13T15:39:12.583Z,2.17
2018-06-13T15:41:42.153Z,2.13
2018-06-13T15:44:12.187Z,1.97
2018-06-13T15:46:41.638Z,2.53
2018-06-13T15:49:11.049Z,2.00
2018-06-13T15:51:40.761Z,2.10
2018-06-13T15:54:12.106Z,1.97
2018-06-13T15:56:41.582Z,1.70
2018-06-13T15:59:10.837Z,1.90
2018-06-13T16:01:40.203Z,2.37
2018-06-13T16:04:09.560Z,2.07
2018-06-13T16:06:38.806Z,1.83
2018-06-13T16:09:10.484Z,1.70
2018-06-13T16:11:39.824Z,2.17
2018-06-13T16:14:09.187Z,2.00
2018-06-13T16:16:38.488Z,2.80
2018-06-13T16:19:07.978Z,2.07
2018-06-13T16:21:37.300Z,1.90
2018-06-13T16:24:07.128Z,2.40
2018-06-13T16:26:36.424Z,3.17
2018-06-13T16:29:05.950Z,2.30
2018-06-13T16:31:35.384Z,2.00
2018-06-13T16:34:04.898Z,2.37
2018-06-13T16:36:34.349Z,2.17
2018-06-13T16:39:04.743Z,1.90
2018-06-13T16:41:34.176Z,2.53
2018-06-13T16:44:07.114Z,2.10
2018-06-13T16:46:39.354Z,2.40
2018-06-13T16:49:08.766Z,2.40
2018-06-13T16:51:54.956Z,2.13
2018-06-13T16:54:41.633Z,2.53
2018-06-13T16:57:10.928Z,2.20
2018-06-13T16:59:40.186Z,2.40
2018-06-13T17:02:09.634Z,2.20
2018-06-13T17:04:38.959Z,2.17
2018-06-13T17:07:10.587Z,2.77
2018-06-13T17:09:40.137Z,2.60
2018-06-13T17:12:09.171Z,2.30
2018-06-13T17:14:38.565Z,2.53
2018-06-13T17:17:09.305Z,2.17
2018-06-13T17:19:42.244Z,2.33
2018-06-13T17:22:11.675Z,2.37
2018-06-13T17:24:41.118Z,2.40
2018-06-13T17:27:10.439Z,2.43
2018-06-13T17:29:39.875Z,2.70
2018-06-13T17:32:09.393Z,2.40
2018-06-13T17:34:38.809Z,2.60
2018-06-13T17:37:08.031Z,2.57
2018-06-13T17:39:37.437Z,2.47
2018-06-13T17:42:06.856Z,2.50
2018-06-13T17:44:36.377Z,2.70
2018-06-13T17:47:05.642Z,2.40
2018-06-13T17:49:35.042Z,2.23
2018-06-13T17:52:04.679Z,2.20
2018-06-13T17:54:34.090Z,2.47
2018-06-13T17:57:03.462Z,2.23
2018-06-13T17:59:33.011Z,2.70
2018-06-13T18:02:02.299Z,2.83
2018-06-13T18:04:32.142Z,2.80
2018-06-13T18:07:01.558Z,2.63
2018-06-13T18:09:31.307Z,3.30
2018-06-13T18:12:00.890Z,3.83
2018-06-13T18:14:30.481Z,2.67
2018-06-13T18:16:59.723Z,2.57
2018-06-13T18:19:29.654Z,3.13
2018-06-13T18:21:59.283Z,2.50
2018-06-13T18:24:29.363Z,2.73
2018-06-13T18:26:58.864Z,3.13
2018-06-13T18:29:28.335Z,3.30
2018-06-13T18:31:57.775Z,2.63
2018-06-13T18:34:27.124Z,4.90
2018-06-13T18:36:56.500Z,2.87
2018-06-13T18:39:25.958Z,3.07
2018-06-13T18:41:55.371Z,2.40
2018-06-13T18:44:25.009Z,2.80
2018-06-13T18:46:54.355Z,2.60
2018-06-13T18:49:24.289Z,2.93
2018-06-13T18:51:53.574Z,2.80
2018-06-13T18:54:22.889Z,3.03
2018-06-13T18:56:52.148Z,2.63
2018-06-13T18:59:22.445Z,3.00
2018-06-13T19:01:51.776Z,2.80
2018-06-13T19:04:21.113Z,2.97
2018-06-13T19:06:50.511Z,2.67
2018-06-13T19:09:19.811Z,3.37
2018-06-13T19:11:49.083Z,2.83
2018-06-13T19:14:19.808Z,3.20
2018-06-13T19:16:54.490Z,3.00
2018-06-13T19:19:25.562Z,2.60
2018-06-13T19:22:03.210Z,3.73
2018-06-13T19:24:43.571Z,3.50
2018-06-13T19:27:12.975Z,2.87
2018-06-13T19:29:42.397Z,2.80
2018-06-13T19:32:12.100Z,4.10
2018-06-13T19:34:41.848Z,3.20
2018-06-13T19:37:21.318Z,5.40
2018-06-13T19:39:53.990Z,4.67
2018-06-13T19:42:23.489Z,4.43
2018-06-13T19:45:03.844Z,3.60
2018-06-13T19:47:44.113Z,3.90
2018-06-13T19:50:13.504Z,3.30
2018-06-13T19:52:48.333Z,3.13
2018-06-13T19:55:22.776Z,3.20
2018-06-13T19:57:52.276Z,3.10
2018-06-13T20:00:22.233Z,3.10
2018-06-13T20:02:57.037Z,2.97
2018-06-13T20:05:31.802Z,3.10
2018-06-13T20:08:02.196Z,3.37
2018-06-13T20:10:31.814Z,3.50
2018-06-13T20:13:07.765Z,3.00
2018-06-13T20:15:42.795Z,3.40
2018-06-13T20:18:18.645Z,3.03
2018-06-13T20:20:48.001Z,3.83
2018-06-13T20:23:17.466Z,3.00
2018-06-13T20:25:52.192Z,2.60
2018-06-13T20:28:26.915Z,2.87
2018-06-13T20:31:01.427Z,2.80
2018-06-13T20:33:31.448Z,3.00
2018-06-13T20:36:01.130Z,2.90
2018-06-13T20:38:31.280Z,2.80
2018-06-13T20:41:01.184Z,2.50
2018-06-13T20:43:33.026Z,3.40
2018-06-13T20:46:10.268Z,2.70
2018-06-13T20:48:44.975Z,3.13
2018-06-13T20:51:24.949Z,3.07
2018-06-13T20:54:01.029Z,3.43
2018-06-13T20:56:33.618Z,3.13
2018-06-13T20:59:08.465Z,2.60
2018-06-13T21:01:39.690Z,2.93
2018-06-13T21:04:11.114Z,3.43
2018-06-13T21:06:42.099Z,3.00
2018-06-13T21:09:12.994Z,3.53
2018-06-13T21:11:45.147Z,2.93
2018-06-13T21:14:14.418Z,2.83
2018-06-13T21:16:43.524Z,3.00
2018-06-13T21:19:12.803Z,3.00
2018-06-13T21:21:44.000Z,3.03
2018-06-13T21:24:13.823Z,3.60
2018-06-13T21:26:43.621Z,3.30
2018-06-13T21:29:18.084Z,3.27
2018-06-13T21:31:48.983Z,3.77
2018-06-13T21:34:19.677Z,3.33
2018-06-13T21:36:48.891Z,3.57
2018-06-13T21:39:19.874Z,4.00
2018-06-13T21:41:50.771Z,3.87
2018-06-13T21:44:25.098Z,3.80
2018-06-13T21:47:00.959Z,3.77
2018-06-13T21:49:34.775Z,4.17
2018-06-13T21:52:04.414Z,4.07
2018-06-13T21:54:33.931Z,4.53
2018-06-13T21:57:03.385Z,3.90
2018-06-13T21:59:32.655Z,3.23
2018-06-13T22:02:02.073Z,3.20
2018-06-13T22:04:31.530Z,3.70
2018-06-13T22:07:00.994Z,3.80
2018-06-13T22:09:30.497Z,3.33
2018-06-13T22:11:59.878Z,3.60
2018-06-13T22:14:29.240Z,3.70
2018-06-13T22:16:58.518Z,3.33
2018-06-13T22:19:27.893Z,3.10
2018-06-13T22:21:57.324Z,3.50
2018-06-13T22:24:26.664Z,3.70
2018-06-13T22:26:56.028Z,3.20
2018-06-13T22:29:25.405Z,3.37
2018-06-13T22:31:54.897Z,3.60
2018-06-13T22:34:24.199Z,3.47
2018-06-13T22:36:53.460Z,3.73
2018-06-13T22:39:22.828Z,3.57
2018-06-13T22:41:52.101Z,4.13
2018-06-13T22:44:21.502Z,3.33
2018-06-13T22:46:50.957Z,3.13
2018-06-13T22:49:20.323Z,3.20
2018-06-13T22:51:49.583Z,3.60
2018-06-13T22:54:18.852Z,3.17
2018-06-13T22:56:48.158Z,3.20
2018-06-13T22:59:17.546Z,3.20
2018-06-13T23:01:47.399Z,3.90
2018-06-13T23:04:16.900Z,3.60
2018-06-13T23:06:46.139Z,3.43
2018-06-13T23:09:15.671Z,3.70
2018-06-13T23:11:46.555Z,3.70
2018-06-13T23:14:17.704Z,4.17
2018-06-13T23:16:47.154Z,3.83
2018-06-13T23:19:17.880Z,4.60
2018-06-13T23:21:47.752Z,4.90
2018-06-13T23:24:19.992Z,4.83
2018-06-13T23:26:50.238Z,5.43
2018-06-13T23:29:19.980Z,5.50
2018-06-13T23:31:50.682Z,4.90
2018-06-13T23:37:04.534Z,4.87
2018-06-13T23:39:36.200Z,5.47
2018-06-13T23:42:06.523Z,5.23
2018-06-13T23:44:36.404Z,4.97
2018-06-13T23:47:05.935Z,5.50
2018-06-13T23:49:36.495Z,5.00
2018-06-13T23:52:06.269Z,5.87
2018-06-13T23:54:37.763Z,5.50
2018-06-13T23:57:07.232Z,5.87
2018-06-13T23:59:37.096Z,5.50
